createdAt,value
2022-10-05T00:02:56.591Z,101068.31
2022-10-05T00:08:43.515Z,101068.47
2022-10-05T00:14:35.158Z,101048.97
2022-10-05T00:20:24.765Z,101034.78
2022-10-05T00:26:17.125Z,101030.53
2022-10-05T00:32:04.027Z,101020.47
2022-10-05T00:37:55.323Z,101006.16
2022-10-05T00:44:06.804Z,101008.19
2022-10-05T00:50:20.435Z,101006.31
2022-10-05T00:56:36.186Z,100999.06
2022-10-05T01:02:54.013Z,101005.03
2022-10-05T01:08:46.217Z,101006.63
2022-10-05T01:14:43.276Z,101009.44
2022-10-05T01:20:40.856Z,100998.44
2022-10-05T01:26:30.546Z,100996.22
2022-10-05T01:32:45.960Z,100986.47
2022-10-05T01:38:55.518Z,100961.13
2022-10-05T01:44:42.211Z,100954.97
2022-10-05T01:51:06.136Z,100956.84
2022-10-05T01:57:16.468Z,100966.00
2022-10-05T02:03:14.088Z,100947.91
2022-10-05T02:09:13.233Z,100949.63
2022-10-05T02:15:09.012Z,100933.88
2022-10-05T02:20:58.390Z,100924.41
2022-10-05T02:26:48.055Z,100908.34
2022-10-05T02:32:39.825Z,100908.69
2022-10-05T02:38:37.645Z,100898.91
2022-10-05T02:44:25.644Z,100889.63
2022-10-05T02:50:34.594Z,100886.16
2022-10-05T02:56:33.274Z,100887.91
2022-10-05T03:02:29.795Z,100874.19
2022-10-05T03:08:31.244Z,100877.34
2022-10-05T03:14:38.642Z,100865.38
2022-10-05T03:20:37.746Z,100858.75
2022-10-05T03:26:52.394Z,100872.78
2022-10-05T03:32:39.834Z,100871.19
2022-10-05T03:38:54.732Z,100847.91
2022-10-05T03:45:07.364Z,100844.16
2022-10-05T03:51:03.314Z,100853.59
2022-10-05T03:56:58.410Z,100837.66
2022-10-05T04:03:04.354Z,100844.41
2022-10-05T04:09:13.052Z,100844.78
2022-10-05T04:15:08.448Z,100842.41
2022-10-05T04:21:07.102Z,100834.66
2022-10-05T04:26:57.716Z,100815.91
2022-10-05T04:32:53.973Z,100810.13
2022-10-05T04:38:53.553Z,100806.78
2022-10-05T04:45:02.870Z,100803.66
2022-10-05T04:51:24.989Z,100794.09
2022-10-05T04:57:22.044Z,100800.22
2022-10-05T05:03:43.500Z,100796.00
2022-10-05T05:10:00.044Z,100774.38
2022-10-05T05:16:01.389Z,100781.50
2022-10-05T05:22:04.392Z,100776.50
2022-10-05T05:28:03.833Z,100758.47
2022-10-05T05:34:22.858Z,100761.31
2022-10-05T05:40:20.883Z,100741.97
2022-10-05T05:46:38.859Z,100733.81
2022-10-05T05:52:57.758Z,100740.91
2022-10-05T05:58:57.725Z,100726.25
2022-10-05T06:04:52.684Z,100729.84
2022-10-05T06:11:01.427Z,100727.72
2022-10-05T06:17:05.512Z,100719.97
2022-10-05T06:22:54.502Z,100715.25
2022-10-05T06:28:42.432Z,100718.38
2022-10-05T06:34:42.869Z,100734.09
2022-10-05T06:41:17.142Z,100732.94
2022-10-05T06:47:23.351Z,100709.50
2022-10-05T06:54:02.228Z,100693.03
2022-10-05T07:00:25.261Z,100689.38
2022-10-05T07:06:21.602Z,100687.78
2022-10-05T07:12:35.066Z,100681.69
2022-10-05T07:18:57.805Z,100679.03
2022-10-05T07:25:03.432Z,100685.88
2022-10-05T07:31:05.923Z,100666.59
2022-10-05T07:37:26.126Z,100665.59
2022-10-05T07:43:51.395Z,100665.16
2022-10-05T07:49:50.399Z,100654.19
2022-10-05T07:55:45.045Z,100652.25
2022-10-05T08:01:36.895Z,100644.81
2022-10-05T08:07:25.990Z,100636.69
2022-10-05T08:13:22.133Z,100628.03
2022-10-05T08:19:20.761Z,100649.63
2022-10-05T08:25:21.007Z,100622.78
2022-10-05T08:31:18.634Z,100624.47
2022-10-05T08:37:08.798Z,100624.81
2022-10-05T08:43:07.196Z,100622.69
2022-10-05T08:49:35.142Z,100631.25
2022-10-05T08:55:55.735Z,100626.75
2022-10-05T09:02:01.233Z,100621.03
2022-10-05T09:08:23.521Z,100623.13
2022-10-05T09:14:24.046Z,100617.44
2022-10-05T09:20:30.788Z,100624.63
2022-10-05T09:26:55.314Z,100611.88
2022-10-05T09:33:38.273Z,100600.03
2022-10-05T09:40:01.495Z,100606.19
2022-10-05T09:46:06.558Z,100606.28
2022-10-05T09:52:43.413Z,100590.38
2022-10-05T09:58:57.862Z,100590.25
2022-10-05T10:05:16.054Z,100579.72
2022-10-05T10:11:22.931Z,100567.06
2022-10-05T10:17:24.774Z,100575.69
2022-10-05T10:23:26.713Z,100558.88
2022-10-05T10:29:38.001Z,100562.69
2022-10-05T10:35:34.965Z,100562.69
2022-10-05T10:42:46.021Z,100558.00
2022-10-05T10:48:57.963Z,100554.84
2022-10-05T10:55:03.597Z,100555.75
2022-10-05T11:01:16.179Z,100555.09
2022-10-05T11:07:24.833Z,100566.38
2022-10-05T11:13:21.548Z,100579.47
2022-10-05T11:19:35.165Z,100552.25
2022-10-05T11:26:05.886Z,100561.22
2022-10-05T11:32:05.696Z,100581.44
2022-10-05T11:38:13.993Z,100579.91
2022-10-05T11:44:09.031Z,100566.59
2022-10-05T11:50:23.123Z,100596.88
2022-10-05T11:56:33.973Z,100596.91
2022-10-05T12:02:42.957Z,100604.84
2022-10-05T12:09:09.174Z,100604.97
2022-10-05T12:15:08.704Z,100599.00
2022-10-05T12:21:07.511Z,100597.91
2022-10-05T12:27:29.785Z,100607.19
2022-10-05T12:33:30.201Z,100618.00
2022-10-05T12:39:36.701Z,100613.63
2022-10-05T12:45:50.207Z,100615.66
2022-10-05T12:51:58.346Z,100630.03
2022-10-05T12:58:32.625Z,100622.34
2022-10-05T13:04:54.210Z,100606.41
2022-10-05T13:11:25.818Z,100597.41
2022-10-05T13:17:27.980Z,100570.31
2022-10-05T13:23:46.331Z,100580.69
2022-10-05T13:30:01.783Z,100577.31
2022-10-05T13:36:16.401Z,100603.03
2022-10-05T13:42:25.763Z,100604.13
2022-10-05T13:48:24.390Z,100695.53
2022-10-05T13:55:16.878Z,100700.31
2022-10-05T14:01:41.894Z,100698.66
2022-10-05T14:13:49.113Z,100735.97
2022-10-05T14:19:48.852Z,100734.81
2022-10-05T14:25:50.206Z,100744.44
2022-10-05T14:31:38.073Z,100760.66
2022-10-05T14:37:53.894Z,100776.72
2022-10-05T14:43:50.931Z,100790.69
2022-10-05T14:50:15.379Z,100802.94
2022-10-05T14:56:36.656Z,100824.38
2022-10-05T15:02:45.171Z,100835.09
2022-10-05T15:09:17.747Z,100850.69
2022-10-05T15:15:18.072Z,100856.06
2022-10-05T15:21:14.162Z,100875.59
2022-10-05T15:27:04.266Z,100878.97
2022-10-05T15:33:09.236Z,100908.06
2022-10-05T15:39:41.005Z,100923.03
2022-10-05T15:52:39.143Z,100922.38
2022-10-05T15:58:59.709Z,100948.34
2022-10-05T16:04:46.646Z,100985.19
2022-10-05T16:10:37.110Z,100987.63
2022-10-05T16:16:51.090Z,101006.44
2022-10-05T16:23:02.335Z,101012.56
2022-10-05T16:29:00.642Z,101021.16
2022-10-05T16:35:08.112Z,101038.31
2022-10-05T16:41:02.160Z,101043.97
2022-10-05T16:47:12.275Z,101043.06
2022-10-05T16:53:14.671Z,101064.28
2022-10-05T16:59:19.930Z,101074.97
2022-10-05T17:05:40.849Z,101095.13
2022-10-05T17:11:52.982Z,101107.31
2022-10-05T17:18:01.093Z,101125.13
2022-10-05T17:23:54.759Z,101127.22
2022-10-05T17:29:51.744Z,101140.28
2022-10-05T17:36:12.807Z,101164.97
2022-10-05T17:42:31.345Z,101173.16
2022-10-05T17:48:54.270Z,101202.41
2022-10-05T17:55:19.636Z,101225.34
2022-10-05T18:01:37.438Z,101251.56
2022-10-05T18:07:24.690Z,101270.63
2022-10-05T18:13:38.460Z,101302.59
2022-10-05T18:19:32.300Z,101316.22
2022-10-05T18:25:46.564Z,101329.53
2022-10-05T18:31:39.366Z,101338.63
2022-10-05T18:37:47.032Z,101352.03
2022-10-05T18:43:37.453Z,101370.22
2022-10-05T18:50:01.419Z,101401.44
2022-10-05T18:56:19.651Z,101409.22
2022-10-05T19:02:30.646Z,101447.34
2022-10-05T19:08:30.175Z,101449.16
2022-10-05T19:14:41.446Z,101469.66
2022-10-05T19:20:50.572Z,101478.72
2022-10-05T19:27:07.552Z,101487.38
2022-10-05T19:33:31.374Z,101498.66
2022-10-05T19:39:40.991Z,101516.66
2022-10-05T19:45:42.088Z,101545.69
2022-10-05T19:51:36.003Z,101559.34
2022-10-05T19:57:23.318Z,101554.84
2022-10-05T20:03:23.902Z,101577.75
2022-10-05T20:09:22.191Z,101592.38
2022-10-05T20:16:18.257Z,101582.28
2022-10-05T20:22:49.510Z,101601.81
2022-10-05T20:28:47.757Z,101619.13
2022-10-05T20:34:41.876Z,101638.78
2022-10-05T20:41:09.461Z,101641.22
2022-10-05T20:47:01.558Z,101673.91
2022-10-05T20:52:53.500Z,101691.50
2022-10-05T20:58:40.629Z,101708.25
2022-10-05T21:04:40.805Z,101730.59
2022-10-05T21:10:33.917Z,101746.28
2022-10-05T21:16:23.460Z,101748.94
2022-10-05T21:22:10.565Z,101764.34
2022-10-05T21:28:00.228Z,101781.66
2022-10-05T21:33:47.452Z,101788.84
2022-10-05T21:39:37.367Z,101802.09
2022-10-05T21:45:27.362Z,101804.22
2022-10-05T21:51:24.365Z,101813.28
2022-10-05T21:57:12.482Z,101815.41
2022-10-05T22:03:02.274Z,101823.31
2022-10-05T22:08:50.498Z,101841.41
2022-10-05T22:14:52.734Z,101845.97
2022-10-05T22:20:44.719Z,101852.00
2022-10-05T22:26:32.644Z,101883.88
2022-10-05T22:32:25.442Z,101891.59
2022-10-05T22:38:17.460Z,101900.09
2022-10-05T22:44:05.940Z,101899.25
2022-10-05T22:49:52.663Z,101917.28
2022-10-05T22:55:39.487Z,101905.59
2022-10-05T23:01:27.202Z,101913.81
2022-10-05T23:07:17.754Z,101917.56
2022-10-05T23:13:07.935Z,101935.06
2022-10-05T23:18:55.722Z,101949.44
2022-10-05T23:24:42.487Z,101959.53
2022-10-05T23:30:29.224Z,101978.78
2022-10-05T23:36:22.515Z,101973.56
2022-10-05T23:42:10.299Z,101996.94
2022-10-05T23:47:56.930Z,102001.59
2022-10-05T23:53:44.113Z,102027.78
2022-10-05T23:59:30.916Z,102051.41
